Flight Track Log - Related Links

Times and Time Zones

All times are in EDT time to prevent confusion due to time zone crossing. See the ELO390 flight status page for this flight to view local times or setup timezone preferences in your user account.

Time Position Orientation Groundspeed Altitude Reporting Facility
EDT Latitude Longitude Course Direction KTS MPH feet Rate Location/Type
Wed 02:12:00 PM 52.5335 14.4108 92° East  Level Estimated
Wed 02:13:00 PM 52.5294 14.5511 93° East  Level Estimated
Wed 02:14:00 PM 52.5253 14.6913 93° East  Level Estimated
Wed 02:15:00 PM 52.5209 14.8315 93° East  Level Estimated
Wed 02:16:00 PM 52.5164 14.9718 93° East  Level Estimated
Wed 02:17:00 PM 52.5117 15.1119 93° East  Level Estimated
Wed 02:18:00 PM 52.5068 15.2521 93° East  Level Estimated
Wed 02:19:00 PM 52.5018 15.3922 93° East  Level Estimated
Wed 02:20:00 PM 52.4966 15.5323 93° East  Level Estimated
Wed 02:21:00 PM 52.4913 15.6723 94° East  Level Estimated
Wed 02:22:00 PM 52.4858 15.8123 94° East  Level Estimated
Wed 02:23:00 PM 52.4801 15.9523 94° East  Level Estimated
Wed 02:24:00 PM 52.4743 16.0922 94° East  Level Estimated
Wed 02:25:00 PM 52.4683 16.2321 94° East  Level Estimated
Wed 02:26:00 PM 52.4621 16.3720 94° East  Level Estimated
Wed 02:27:00 PM 52.4557 16.5118 94° East  Level Estimated
Wed 02:28:00 PM 52.4492 16.6516 94° East  Level Estimated
Wed 02:29:00 PM 52.4426 16.7913 94° East  Level Estimated
Wed 02:30:00 PM 52.4357 16.9310 95° East  Level Estimated
Wed 02:31:00 PM 52.4287 17.0707 95° East  Level Estimated
Wed 02:32:00 PM 52.4216 17.2103 95° East  Level Estimated
Wed 02:33:00 PM 52.4142 17.3498 95° East  Level Estimated
Wed 02:34:00 PM 52.4068 17.4893 95° East  Level Estimated
Wed 02:35:00 PM 52.3991 17.6288 95° East  Level Estimated
Wed 02:36:00 PM 52.3913 17.7682 95° East  Level Estimated
Wed 02:37:00 PM 52.3833 17.9076 95° East  Level Estimated
Wed 02:38:00 PM 52.3751 18.0469 95° East  Level Estimated
Wed 02:39:00 PM 52.3668 18.1862 96° East  Level Estimated
Wed 02:40:00 PM 52.3584 18.3254 96° East  Level Estimated
Wed 02:41:00 PM 52.3497 18.4645 96° East  Level Estimated
Wed 02:42:00 PM 52.3409 18.6036 96° East  Level Estimated
Wed 02:43:00 PM 52.3320 18.7427 96° East  Level Estimated
Wed 02:44:00 PM 52.3228 18.8817 96° East  Level Estimated
Wed 02:45:00 PM 52.3135 19.0206 96° East  Level Estimated
Wed 02:46:00 PM 52.3041 19.1595 96° East  Level Estimated
Wed 02:47:00 PM 52.2945 19.2983 96° East  Level Estimated
Wed 02:48:00 PM 52.2847 19.4370 97° East  Level Estimated
Wed 02:49:00 PM 52.2748 19.5757 97° East  Level Estimated
Wed 02:50:00 PM 52.2647 19.7143 97° East  Level Estimated
Wed 02:51:00 PM 52.2544 19.8529 97° East  Level Estimated
Wed 02:52:00 PM 52.2440 19.9914 97° East  Level Estimated
Wed 02:53:00 PM 52.2334 20.1298 97° East  Level Estimated
Wed 02:54:00 PM 52.2226 20.2682 97° East  Level Estimated
Wed 02:55:00 PM 52.2117 20.4065 97° East  Level Estimated
Wed 02:56:00 PM 52.2006 20.5447 97° East  Level Estimated
Wed 02:57:00 PM 52.1894 20.6829 98° East  Level Estimated
Wed 02:58:00 PM 52.1780 20.8210 98° East  Level Estimated
Wed 02:59:00 PM 52.1664 20.9590 98° East  Level Estimated
Wed 03:00:00 PM 52.1657 20.9671 98° East  Level Estimated
Wed 03:01:00 PM 52.1657 20.9671 90° East  Level Estimated
Wed 03:02:00 PM 52.1657 20.9671 90° East  Level Estimated
Wed 03:03:00 PM 52.1657 20.9671 90° East  Level Estimated
Wed 03:04:00 PM 52.1657 20.9671 90° East  Level Estimated
Wed 03:05:00 PM 52.1657 20.9671 90° East  Level Estimated
Wed 03:06:00 PM 52.1657 20.9671 90° East  Level Estimated
Wed 03:07:00 PM 52.1657 20.9671 90° East  Level Estimated
Wed 03:08:00 PM 52.1657 20.9671 90° East  Level Estimated
Wed 03:09:00 PM 52.1657 20.9671 90° East  Level Estimated
Wed 03:10:00 PM 52.1657 20.9671 90° East  Level Estimated
Wed 03:11:00 PM 52.1657 20.9671 90° East  Level Estimated
Wed 03:12:00 PM 52.1657 20.9671 90° East  Level Estimated
Wed 03:13:00 PM 52.1657 20.9671 90° East  Level Estimated
Wed 03:14:00 PM 52.1657 20.9671 90° East  Level Estimated
Wed 03:15:00 PM 52.1657 20.9671 90° East  Level Estimated

Login

Don't have an account? Register now (free) for customized features, flight alerts, and more!